Time;durP1;ratioP1;P1;durP2;ratioP2;P2;SDS_P1;SDS_P2;PMS_P1;PMS_P2;Temp;Humidity;BMP_temperature;BMP_pressure;BME280_temperature;BME280_humidity;BME280_pressure;Samples;Min_cycle;Max_cycle;Signal;HPM_P1;HPM_P2
2022/04/20 00:01:11;;;;;;;5.15;3.97;;;5.60;99.20;;;;;;5023368;28;20041;-74
2022/04/20 00:03:38;;;;;;;4.47;4.07;;;5.50;99.90;;;;;;5025324;28;20041;-73
2022/04/20 00:06:04;;;;;;;4.22;3.83;;;5.50;98.50;;;;;;5026071;28;20095;-74
2022/04/20 00:08:30;;;;;;;5.10;3.88;;;5.50;98.70;;;;;;5024897;28;20025;-74
2022/04/20 00:10:56;;;;;;;6.43;4.25;;;5.50;97.90;;;;;;5027104;28;20033;-74
2022/04/20 00:13:22;;;;;;;4.50;3.67;;;5.40;97.50;;;;;;5024416;28;20026;-74
2022/04/20 00:15:48;;;;;;;5.28;3.97;;;5.40;97.40;;;;;;5024286;28;20038;-73
2022/04/20 00:18:14;;;;;;;4.60;3.88;;;5.40;97.50;;;;;;5025491;28;20069;-73
2022/04/20 00:20:39;;;;;;;5.75;3.80;;;5.40;97.20;;;;;;5023228;28;20029;-73
2022/04/20 00:23:05;;;;;;;4.63;4.13;;;5.30;97.70;;;;;;5026180;28;20463;-73
2022/04/20 00:25:30;;;;;;;7.40;4.32;;;5.30;98.30;;;;;;5025285;28;20034;-74
2022/04/20 00:27:56;;;;;;;6.38;3.90;;;5.20;98.20;;;;;;5021523;28;20057;-73
2022/04/20 00:30:22;;;;;;;4.03;3.53;;;5.10;98.10;;;;;;5020431;28;20036;-73
2022/04/20 00:32:47;;;;;;;3.72;3.25;;;5.00;97.50;;;;;;5003470;28;20034;-73
2022/04/20 00:35:13;;;;;;;4.38;3.97;;;5.10;97.00;;;;;;5022989;28;20051;-73
2022/04/20 00:37:42;;;;;;;5.18;3.90;;;5.00;96.80;;;;;;5023794;28;20059;-73
2022/04/20 00:40:09;;;;;;;7.05;3.45;;;5.00;96.60;;;;;;5020890;28;20041;-73
2022/04/20 00:42:38;;;;;;;4.18;3.78;;;5.00;96.90;;;;;;5022041;28;20452;-73
2022/04/20 00:45:04;;;;;;;5.88;3.83;;;4.90;98.10;;;;;;5023865;28;20033;-73
2022/04/20 00:47:32;;;;;;;6.15;3.83;;;4.70;99.30;;;;;;5021220;28;20042;-73
2022/04/20 00:49:58;;;;;;;4.25;3.85;;;4.60;99.90;;;;;;5019599;28;20034;-73
2022/04/20 00:52:24;;;;;;;5.10;3.67;;;4.20;99.90;;;;;;5018840;28;20040;-71
2022/04/20 00:54:50;;;;;;;5.90;3.95;;;4.00;99.90;;;;;;5020310;28;20041;-73
2022/04/20 00:57:15;;;;;;;4.57;3.78;;;3.60;99.90;;;;;;5018960;28;20034;-71
2022/04/20 00:59:43;;;;;;;5.32;4.30;;;3.70;99.90;;;;;;5022496;28;20489;-73
2022/04/20 01:02:09;;;;;;;4.90;3.90;;;3.80;99.90;;;;;;5015806;28;20368;-72
2022/04/20 01:04:34;;;;;;;4.25;3.72;;;3.90;99.90;;;;;;5022670;28;20033;-73
2022/04/20 01:07:13;;;;;;;4.55;4.15;;;4.00;99.90;;;;;;5020149;28;20083;-73
2022/04/20 01:09:40;;;;;;;4.00;3.40;;;4.00;99.90;;;;;;5019460;28;20026;-72
2022/04/20 01:12:07;;;;;;;4.73;3.50;;;4.00;99.90;;;;;;5032237;28;20034;-73
2022/04/20 01:14:36;;;;;;;4.10;3.70;;;3.90;99.90;;;;;;5018438;28;20071;-73
2022/04/20 01:17:05;;;;;;;4.93;4.40;;;3.80;99.90;;;;;;5021031;28;20083;-73
2022/04/20 01:19:38;;;;;;;6.53;4.32;;;3.90;99.90;;;;;;5018526;28;20131;-73
2022/04/20 01:22:04;;;;;;;4.47;4.07;;;3.60;99.90;;;;;;5018946;28;20045;-72
2022/04/20 01:24:31;;;;;;;7.07;4.50;;;3.40;99.90;;;;;;5015987;28;20040;-73
2022/04/20 01:26:57;;;;;;;6.88;4.75;;;3.20;99.90;;;;;;5020371;28;20052;-73
2022/04/20 01:29:24;;;;;;;10.18;5.25;;;3.30;99.90;;;;;;5017888;28;20033;-73
2022/04/20 01:31:50;;;;;;;8.10;4.97;;;3.30;99.90;;;;;;5018357;28;20084;-73
2022/04/20 01:34:16;;;;;;;5.22;4.60;;;3.40;99.90;;;;;;5020856;28;20520;-73
2022/04/20 01:36:42;;;;;;;4.15;3.65;;;3.40;99.90;;;;;;5020795;28;20368;-73
2022/04/20 01:39:07;;;;;;;5.65;3.92;;;3.50;99.90;;;;;;5023226;28;20040;-72
2022/04/20 01:41:33;;;;;;;4.25;3.85;;;3.00;99.90;;;;;;5020462;28;20463;-73
2022/04/20 01:43:59;;;;;;;4.85;3.63;;;3.10;99.90;;;;;;5022871;28;20037;-74
2022/04/20 01:46:25;;;;;;;4.45;4.05;;;3.20;99.90;;;;;;5022856;28;20041;-72
2022/04/20 01:48:50;;;;;;;4.80;4.07;;;3.20;99.90;;;;;;5024493;28;20083;-72
2022/04/20 01:54:00;;;;;;;6.38;4.47;;;3.00;99.90;;;;;;5022287;28;20087;-72
2022/04/20 01:56:26;;;;;;;5.50;4.55;;;2.70;99.90;;;;;;5021976;28;20468;-73
2022/04/20 01:58:51;;;;;;;6.72;5.00;;;2.60;99.90;;;;;;5022941;28;20116;-73
2022/04/20 02:04:01;;;;;;;7.32;5.55;;;2.70;99.90;;;;;;5020178;28;20044;-73
2022/04/20 02:06:27;;;;;;;6.72;5.55;;;2.60;99.90;;;;;;5023616;28;20053;-73
2022/04/20 02:08:53;;;;;;;12.40;6.65;;;2.60;99.90;;;;;;5020456;28;20041;-73
2022/04/20 02:11:19;;;;;;;8.48;5.53;;;2.60;99.90;;;;;;5022601;28;20476;-73
2022/04/20 02:13:44;;;;;;;6.18;5.35;;;2.70;99.90;;;;;;5020046;28;20049;-72
2022/04/20 02:16:10;;;;;;;6.90;5.60;;;2.50;99.90;;;;;;5023305;28;20041;-72
2022/04/20 02:18:36;;;;;;;6.35;5.68;;;2.40;99.90;;;;;;5022064;28;20124;-72
2022/04/20 02:21:01;;;;;;;6.97;5.95;;;2.20;99.90;;;;;;5020143;28;20032;-72
2022/04/20 02:23:27;;;;;;;6.95;5.85;;;1.90;99.90;;;;;;5023977;28;20096;-72
2022/04/20 02:25:53;;;;;;;7.55;5.65;;;1.70;99.90;;;;;;5021612;28;20140;-73
2022/04/20 02:28:19;;;;;;;7.32;6.40;;;1.50;99.90;;;;;;5023703;28;20033;-73
2022/04/20 02:30:45;;;;;;;6.22;5.45;;;1.30;99.90;;;;;;5015549;28;20029;-73
2022/04/20 02:33:10;;;;;;;6.07;5.50;;;1.40;99.90;;;;;;5023294;28;20698;-73
2022/04/20 02:35:37;;;;;;;9.52;6.53;;;1.40;99.90;;;;;;5020447;28;20034;-73
2022/04/20 02:38:03;;;;;;;7.15;6.03;;;1.40;99.90;;;;;;5023282;28;20033;-73
2022/04/20 02:40:30;;;;;;;7.70;6.38;;;1.40;99.90;;;;;;5023288;28;20056;-73
2022/04/20 02:42:57;;;;;;;7.25;5.38;;;1.20;99.90;;;;;;5023186;28;20049;-74
2022/04/20 02:45:23;;;;;;;6.85;6.07;;;1.20;99.90;;;;;;5017488;28;20073;-73
2022/04/20 02:47:49;;;;;;;7.25;5.70;;;1.20;99.90;;;;;;5023337;28;20472;-73
2022/04/20 02:50:14;;;;;;;6.38;5.40;;;1.10;99.90;;;;;;5022507;28;20065;-73
2022/04/20 02:52:40;;;;;;;7.13;5.32;;;1.20;99.90;;;;;;5024056;28;20604;-72
2022/04/20 02:55:06;;;;;;;8.05;6.13;;;1.20;99.90;;;;;;5022928;28;20034;-73
2022/04/20 02:57:31;;;;;;;6.57;5.28;;;1.00;99.90;;;;;;5023858;28;20124;-73
2022/04/20 02:59:57;;;;;;;6.88;5.75;;;0.70;99.90;;;;;;5037126;28;20041;-73
2022/04/20 03:02:23;;;;;;;6.78;5.65;;;0.50;99.90;;;;;;5022429;28;20069;-73
2022/04/20 03:04:48;;;;;;;6.00;5.30;;;0.30;99.90;;;;;;5023093;28;20040;-73
2022/04/20 03:07:14;;;;;;;8.98;7.07;;;0.20;99.90;;;;;;5022953;28;20049;-72
2022/04/20 03:09:39;;;;;;;8.20;5.75;;;0.20;99.90;;;;;;5025135;28;20045;-72
2022/04/20 03:12:06;;;;;;;10.75;7.00;;;0.20;99.90;;;;;;5020723;28;20124;-72
2022/04/20 03:14:31;;;;;;;8.18;6.57;;;0.30;99.90;;;;;;5022647;28;20156;-71
2022/04/20 03:16:57;;;;;;;7.47;5.82;;;0.50;99.90;;;;;;5024413;28;20132;-73
2022/04/20 03:19:23;;;;;;;6.07;5.38;;;0.80;99.90;;;;;;5022955;28;20053;-72
2022/04/20 03:21:48;;;;;;;6.03;4.80;;;1.10;99.90;;;;;;5020898;28;21044;-72
2022/04/20 03:24:14;;;;;;;7.43;5.32;;;1.30;99.90;;;;;;5020313;28;20037;-73
2022/04/20 03:26:43;;;;;;;8.05;6.07;;;1.40;99.90;;;;;;5021933;28;22396;-73
2022/04/20 03:29:08;;;;;;;;;;;1.40;99.90;;;;;;5024337;28;20033;-73
2022/04/20 03:31:37;;;;;;;6.53;4.78;;;1.20;99.90;;;;;;5022878;28;19921;-73
2022/04/20 03:34:04;;;;;;;7.05;6.05;;;1.20;99.90;;;;;;5021616;28;20332;-73
2022/04/20 03:36:30;;;;;;;6.00;5.18;;;1.30;99.90;;;;;;5019995;28;20497;-73
2022/04/20 03:38:56;;;;;;;6.15;5.25;;;1.40;99.90;;;;;;5021767;28;20040;-73
2022/04/20 03:41:22;;;;;;;7.15;5.40;;;1.50;99.90;;;;;;5019945;28;20833;-73
2022/04/20 03:43:48;;;;;;;6.70;4.65;;;1.50;99.90;;;;;;5022361;28;20029;-73
2022/04/20 03:46:14;;;;;;;8.63;5.45;;;1.50;99.90;;;;;;5025394;28;20120;-73
2022/04/20 03:48:40;;;;;;;6.65;5.35;;;1.50;99.90;;;;;;5023442;28;20120;-73
2022/04/20 03:51:06;;;;;;;7.15;5.65;;;1.60;99.90;;;;;;5025683;28;20375;-73
2022/04/20 03:53:31;;;;;;;7.13;5.40;;;1.60;99.90;;;;;;5024832;28;20030;-73
2022/04/20 03:55:57;;;;;;;7.10;5.88;;;1.60;99.90;;;;;;5027054;28;20083;-73
2022/04/20 03:58:23;;;;;;;6.68;5.40;;;1.70;99.90;;;;;;5030602;28;20041;-73
2022/04/20 04:00:49;;;;;;;5.88;5.32;;;1.70;99.90;;;;;;5023860;28;20041;-73
2022/04/20 04:03:15;;;;;;;8.00;5.57;;;1.60;99.90;;;;;;5025953;28;20037;-73
2022/04/20 04:05:40;;;;;;;8.93;6.13;;;1.60;99.90;;;;;;5026863;28;20560;-72
2022/04/20 04:08:06;;;;;;;6.35;5.53;;;1.70;99.90;;;;;;5023277;28;20108;-73
2022/04/20 04:10:32;;;;;;;8.27;6.07;;;1.50;99.90;;;;;;5026290;28;20465;-72
2022/04/20 04:12:58;;;;;;;6.25;5.65;;;1.30;99.90;;;;;;5023304;28;20049;-73
2022/04/20 04:15:23;;;;;;;13.88;6.38;;;1.00;99.90;;;;;;5025209;28;20038;-73
2022/04/20 04:17:54;;;;;;;8.55;6.93;;;0.70;99.90;;;;;;5025225;28;20036;-72
2022/04/20 04:20:21;;;;;;;12.10;7.15;;;0.60;99.90;;;;;;5025476;28;20088;-72
2022/04/20 04:22:47;;;;;;;8.90;7.15;;;0.70;99.90;;;;;;5023222;28;20469;-72
2022/04/20 04:25:13;;;;;;;14.05;8.10;;;0.60;99.90;;;;;;5025024;28;20037;-72
2022/04/20 04:27:38;;;;;;;10.38;6.65;;;0.70;99.90;;;;;;5023697;28;20051;-73
2022/04/20 04:30:05;;;;;;;10.80;7.70;;;0.60;99.90;;;;;;5028096;28;20519;-72
2022/04/20 04:32:31;;;;;;;10.20;7.47;;;0.60;99.90;;;;;;5023280;28;20071;-73
2022/04/20 04:34:57;;;;;;;9.18;6.47;;;0.70;99.90;;;;;;5025883;28;20042;-73
2022/04/20 04:37:22;;;;;;;9.25;6.55;;;0.80;99.90;;;;;;5024427;28;20033;-72
2022/04/20 04:39:48;;;;;;;11.73;6.88;;;0.80;99.90;;;;;;5023482;28;20037;-73
2022/04/20 04:42:13;;;;;;;8.27;6.43;;;0.80;99.90;;;;;;5025108;28;20057;-72
2022/04/20 04:44:39;;;;;;;13.50;7.53;;;0.90;99.90;;;;;;5024195;28;20045;-72
2022/04/20 04:49:50;;;;;;;8.88;6.85;;;1.00;99.90;;;;;;5023098;28;20091;-72
2022/04/20 04:52:16;;;;;;;9.27;6.93;;;0.90;99.90;;;;;;5019566;28;22089;-72
2022/04/20 04:54:42;;;;;;;11.48;7.38;;;1.00;99.90;;;;;;5022707;28;20132;-72
2022/04/20 04:57:12;;;;;;;13.68;8.23;;;0.90;99.90;;;;;;5021807;28;20025;-72
2022/04/20 04:59:39;;;;;;;8.77;6.90;;;0.80;99.90;;;;;;5023353;28;20033;-72
2022/04/20 05:02:05;;;;;;;13.95;7.30;;;0.80;99.90;;;;;;5020160;28;20445;-72
2022/04/20 05:04:31;;;;;;;10.65;7.18;;;0.90;99.90;;;;;;5019730;28;20222;-73
2022/04/20 05:06:57;;;;;;;9.77;7.20;;;0.90;99.90;;;;;;5019774;28;20036;-72
2022/04/20 05:09:23;;;;;;;10.35;7.82;;;1.00;99.90;;;;;;5023847;28;20033;-73
2022/04/20 05:11:49;;;;;;;10.75;7.78;;;1.10;99.90;;;;;;5021986;28;20029;-73
2022/04/20 05:14:15;;;;;;;11.52;7.78;;;1.10;99.90;;;;;;5023012;28;20040;-73
2022/04/20 05:16:41;;;;;;;10.40;7.40;;;1.10;99.90;;;;;;5023881;28;20033;-73
2022/04/20 05:19:07;;;;;;;10.88;8.20;;;1.20;99.90;;;;;;5024513;28;20080;-73
2022/04/20 05:21:35;;;;;;;10.45;6.97;;;1.30;99.90;;;;;;5024510;28;20041;-74
2022/04/20 05:24:01;;;;;;;13.07;8.15;;;1.30;99.90;;;;;;5026822;28;20025;-73
2022/04/20 05:26:27;;;;;;;12.43;8.90;;;1.40;99.90;;;;;;5026802;28;20034;-73
2022/04/20 05:28:52;;;;;;;12.13;9.05;;;1.50;99.90;;;;;;5024733;28;20034;-73
2022/04/20 05:31:19;;;;;;;11.38;8.55;;;1.60;99.90;;;;;;5022962;28;20120;-73
2022/04/20 05:33:45;;;;;;;12.63;9.18;;;1.60;99.90;;;;;;5025736;28;20036;-73
2022/04/20 05:36:11;;;;;;;12.43;7.85;;;1.70;99.90;;;;;;5023750;28;20041;-72
2022/04/20 05:41:40;;;;;;;11.18;8.38;;;2.20;99.90;;;;;;5025622;28;20036;-73
2022/04/20 05:44:07;;;;;;;10.57;7.15;;;2.50;99.90;;;;;;5025615;28;20025;-72
2022/04/20 05:46:33;;;;;;;11.27;7.80;;;2.70;99.90;;;;;;5024317;28;20092;-73
2022/04/20 05:48:59;;;;;;;11.02;7.55;;;2.90;99.90;;;;;;5025063;28;20029;-73
2022/04/20 05:51:25;;;;;;;14.38;8.35;;;3.10;99.90;;;;;;5027278;28;20452;-73
2022/04/20 05:53:50;;;;;;;9.98;7.10;;;3.10;99.90;;;;;;5023340;28;20043;-73
2022/04/20 05:56:16;;;;;;;11.68;7.57;;;3.40;99.90;;;;;;5030264;28;20112;-73
2022/04/20 05:58:42;;;;;;;11.40;7.60;;;3.50;99.90;;;;;;5023129;28;20108;-74
2022/04/20 06:01:07;;;;;;;10.55;7.97;;;3.60;99.90;;;;;;5023795;28;20045;-72
2022/04/20 06:03:33;;;;;;;13.77;7.50;;;3.60;99.90;;;;;;5023167;28;20103;-73
2022/04/20 06:06:02;;;;;;;14.20;8.75;;;3.70;99.90;;;;;;5022336;28;20072;-73
2022/04/20 06:08:29;;;;;;;10.70;7.80;;;3.90;99.90;;;;;;5024767;28;20048;-73
2022/04/20 06:10:55;;;;;;;12.48;6.63;;;3.90;99.90;;;;;;5024979;28;20045;-72
2022/04/20 06:13:21;;;;;;;10.55;7.78;;;4.00;99.90;;;;;;5024496;28;20025;-72
2022/04/20 06:15:46;;;;;;;11.80;7.03;;;4.10;99.90;;;;;;5019210;28;20047;-73
2022/04/20 06:18:12;;;;;;;10.70;7.20;;;4.20;99.90;;;;;;5023674;28;20099;-73
2022/04/20 06:20:38;;;;;;;9.88;6.65;;;4.30;99.90;;;;;;5022752;28;20571;-73
2022/04/20 06:23:03;;;;;;;9.15;7.03;;;4.30;99.90;;;;;;5027392;28;20080;-74
2022/04/20 06:25:29;;;;;;;10.05;7.03;;;4.40;99.90;;;;;;5022811;28;20038;-73
2022/04/20 06:27:55;;;;;;;11.52;7.22;;;4.40;99.90;;;;;;5024134;28;20910;-73
2022/04/20 06:30:20;;;;;;;11.63;7.57;;;4.40;99.90;;;;;;5026865;28;20131;-73
2022/04/20 06:32:46;;;;;;;11.77;8.20;;;4.40;99.90;;;;;;5024451;28;20469;-73
2022/04/20 06:35:13;;;;;;;9.98;7.20;;;4.60;99.90;;;;;;5019312;28;20137;-73
2022/04/20 06:37:38;;;;;;;12.68;7.32;;;4.60;99.90;;;;;;5024005;28;20033;-73
2022/04/20 06:40:04;;;;;;;10.65;7.55;;;4.60;99.90;;;;;;5025123;28;20033;-74
2022/04/20 06:42:30;;;;;;;10.32;7.30;;;4.70;99.90;;;;;;5026282;28;20049;-73
2022/04/20 06:44:56;;;;;;;10.70;7.43;;;4.80;99.90;;;;;;5027310;28;20380;-74
2022/04/20 06:47:22;;;;;;;9.82;7.10;;;4.80;99.90;;;;;;5027026;28;20036;-74
2022/04/20 06:49:47;;;;;;;12.68;8.00;;;4.90;99.90;;;;;;5027318;28;20037;-74
2022/04/20 07:00:29;;;;;;;9.20;6.88;;;5.10;99.90;;;;;;5027244;28;20043;-74
2022/04/20 07:02:59;;;;;;;8.60;6.65;;;5.20;99.90;;;;;;5025566;28;20136;-73
2022/04/20 07:05:24;;;;;;;11.15;6.97;;;5.50;99.90;;;;;;5028695;28;20081;-73
2022/04/20 07:07:50;;;;;;;9.23;7.07;;;5.60;99.90;;;;;;5028331;28;20033;-74
2022/04/20 07:10:16;;;;;;;10.85;7.03;;;5.60;99.90;;;;;;5027251;28;20107;-73
2022/04/20 07:12:41;;;;;;;7.78;6.53;;;5.70;99.90;;;;;;5023771;28;20160;-74
2022/04/20 07:15:07;;;;;;;7.85;6.53;;;5.70;99.90;;;;;;5023886;28;20037;-74
2022/04/20 07:17:35;;;;;;;9.25;5.95;;;5.80;99.90;;;;;;5026511;28;20388;-74
2022/04/20 07:20:02;;;;;;;9.55;6.47;;;5.80;99.90;;;;;;5026100;28;20033;-74
2022/04/20 07:22:27;;;;;;;7.18;5.90;;;6.00;99.90;;;;;;5024930;28;20415;-74
2022/04/20 07:24:53;;;;;;;8.55;6.20;;;6.20;99.90;;;;;;5025250;28;20037;-74
2022/04/20 07:27:19;;;;;;;9.88;6.80;;;6.30;99.90;;;;;;5025780;28;20128;-74
2022/04/20 07:29:45;;;;;;;10.32;6.60;;;6.30;99.90;;;;;;5024003;28;20460;-74
2022/04/20 07:32:10;;;;;;;9.43;6.55;;;6.40;99.90;;;;;;5022362;28;20467;-74
2022/04/20 07:34:36;;;;;;;10.50;6.72;;;6.50;99.90;;;;;;5023427;28;20703;-74
2022/04/20 07:37:01;;;;;;;7.65;5.35;;;6.40;99.20;;;;;;5023032;28;20064;-74
2022/04/20 07:39:27;;;;;;;6.85;5.60;;;6.50;98.90;;;;;;5022213;28;20041;-74
2022/04/20 07:41:53;;;;;;;7.03;5.57;;;6.60;99.40;;;;;;5024820;28;20061;-74
2022/04/20 07:44:18;;;;;;;7.97;5.88;;;6.70;97.30;;;;;;5023238;28;20047;-74
2022/04/20 07:46:44;;;;;;;9.32;5.57;;;6.60;97.60;;;;;;5024281;28;20120;-74
2022/04/20 07:51:54;;;;;;;8.38;5.18;;;6.90;96.00;;;;;;5022685;28;20298;-74
2022/04/20 07:54:22;;;;;;;6.93;5.60;;;7.00;95.00;;;;;;5023653;28;20033;-74
2022/04/20 07:56:48;;;;;;;;;;;7.10;97.10;;;;;;5024047;28;20034;-74
2022/04/20 07:59:14;;;;;;;7.10;5.68;;;7.10;96.20;;;;;;5018847;28;19923;-74
2022/04/20 08:01:40;;;;;;;8.30;5.72;;;7.20;94.70;;;;;;5022768;28;20055;-74
2022/04/20 08:04:06;;;;;;;6.13;4.88;;;7.60;96.30;;;;;;5021057;28;20044;-74
2022/04/20 08:06:32;;;;;;;7.28;5.25;;;7.60;94.70;;;;;;5022289;28;20999;-74
2022/04/20 08:08:58;;;;;;;8.52;5.57;;;7.60;94.90;;;;;;5021499;28;20029;-73
2022/04/20 08:11:25;;;;;;;7.03;5.15;;;7.60;96.20;;;;;;5018986;28;20042;-73
2022/04/20 08:16:35;;;;;;;6.30;5.07;;;7.70;94.90;;;;;;5024566;28;20522;-73
2022/04/20 08:19:01;;;;;;;7.63;5.18;;;7.90;94.30;;;;;;5021881;28;20025;-73
2022/04/20 08:21:27;;;;;;;10.05;4.90;;;7.80;91.30;;;;;;5021296;28;20026;-73
2022/04/20 08:23:53;;;;;;;8.48;4.68;;;7.80;91.10;;;;;;5019109;28;20091;-73
2022/04/20 08:26:19;;;;;;;5.72;5.07;;;7.80;85.30;;;;;;5020123;28;20052;-73
2022/04/20 08:28:48;;;;;;;7.05;4.95;;;7.90;85.30;;;;;;5020746;28;20075;-73
2022/04/20 08:31:15;;;;;;;8.27;5.03;;;7.90;90.20;;;;;;5021899;28;20463;-74
2022/04/20 08:33:41;;;;;;;6.47;5.20;;;8.00;90.40;;;;;;5024480;28;20060;-74
2022/04/20 08:36:12;;;;;;;7.50;5.80;;;8.20;84.10;;;;;;5021504;28;20044;-73
2022/04/20 08:38:39;;;;;;;7.25;4.88;;;8.10;92.90;;;;;;5023914;28;20026;-74
2022/04/20 08:41:05;;;;;;;7.75;4.93;;;8.50;87.20;;;;;;5033448;28;20120;-73
2022/04/20 08:43:32;;;;;;;7.00;5.25;;;8.40;87.80;;;;;;5025476;28;20055;-74
2022/04/20 08:46:02;;;;;;;8.00;5.70;;;8.60;91.90;;;;;;5038246;28;20423;-73
2022/04/20 08:48:29;;;;;;;5.68;5.07;;;8.60;91.00;;;;;;5018720;28;20052;-73
2022/04/20 08:50:54;;;;;;;6.15;4.38;;;8.60;85.10;;;;;;5021473;28;20037;-73
2022/04/20 08:53:21;;;;;;;6.60;5.25;;;8.70;84.70;;;;;;5024518;28;20044;-73
2022/04/20 08:55:47;;;;;;;5.97;4.80;;;8.90;92.60;;;;;;5020392;28;20056;-73
2022/04/20 08:58:15;;;;;;;5.13;4.63;;;8.90;81.00;;;;;;5020870;28;20034;-73
2022/04/20 09:00:41;;;;;;;6.22;4.90;;;9.20;90.10;;;;;;5020285;28;20582;-74
2022/04/20 09:03:07;;;;;;;7.25;4.75;;;9.30;76.70;;;;;;5020071;28;20083;-74
2022/04/20 09:05:34;;;;;;;6.57;4.72;;;9.20;83.10;;;;;;5019759;28;20116;-74
2022/04/20 09:08:11;;;;;;;4.47;4.07;;;9.20;71.20;;;;;;5016412;28;20033;-74
2022/04/20 09:10:38;;;;;;;5.70;4.45;;;9.00;62.60;;;;;;5021620;28;20037;-73
2022/04/20 09:13:11;;;;;;;4.72;4.25;;;9.00;76.40;;;;;;5015992;28;20033;-74
2022/04/20 09:15:39;;;;;;;6.05;4.20;;;9.20;70.80;;;;;;5021166;28;20120;-73
2022/04/20 09:18:06;;;;;;;5.32;3.90;;;9.20;71.70;;;;;;5020402;28;20033;-74
2022/04/20 09:20:34;;;;;;;5.13;4.20;;;9.10;69.80;;;;;;5020628;28;20534;-74
2022/04/20 09:23:04;;;;;;;7.28;4.50;;;9.10;64.60;;;;;;5020521;28;20155;-74
2022/04/20 09:25:38;;;;;;;4.90;4.20;;;9.20;64.20;;;;;;5018135;28;20767;-74
2022/04/20 09:28:05;;;;;;;4.32;3.90;;;9.20;63.60;;;;;;5021476;28;20300;-74
2022/04/20 09:30:39;;;;;;;4.80;4.30;;;9.40;72.80;;;;;;5018841;28;20063;-73
2022/04/20 09:33:10;;;;;;;5.18;4.50;;;9.30;58.80;;;;;;5019017;28;20039;-73
2022/04/20 09:35:50;;;;;;;4.70;3.47;;;9.20;62.80;;;;;;5034190;28;20088;-73
2022/04/20 09:38:21;;;;;;;4.80;3.90;;;9.20;59.90;;;;;;5020984;28;21306;-73
2022/04/20 09:40:48;;;;;;;5.80;4.07;;;9.40;65.10;;;;;;5019102;28;20045;-74
2022/04/20 09:43:16;;;;;;;4.20;3.80;;;9.70;78.20;;;;;;5015577;28;20058;-73
2022/04/20 09:45:42;;;;;;;5.80;3.90;;;9.80;55.40;;;;;;5019869;28;20135;-74
2022/04/20 09:51:14;;;;;;;5.28;4.20;;;9.70;57.60;;;;;;5022137;28;20040;-74
2022/04/20 09:53:42;;;;;;;6.97;4.25;;;9.50;55.00;;;;;;5022130;28;20064;-73
2022/04/20 09:56:21;;;;;;;5.50;4.13;;;9.70;58.60;;;;;;5023914;28;20037;-73
2022/04/20 09:59:01;;;;;;;5.20;4.22;;;9.70;62.30;;;;;;5024787;28;20033;-75
2022/04/20 10:01:36;;;;;;;6.45;4.38;;;10.00;61.30;;;;;;5024691;28;20056;-75
2022/04/20 10:04:05;;;;;;;5.95;4.20;;;10.20;54.10;;;;;;5028697;28;20480;-73
2022/04/20 10:06:31;;;;;;;5.05;4.40;;;10.10;54.50;;;;;;5027178;28;20040;-73
2022/04/20 10:08:57;;;;;;;5.75;4.78;;;10.30;63.00;;;;;;5030632;28;20038;-73
2022/04/20 10:11:24;;;;;;;5.15;4.43;;;10.30;72.00;;;;;;5029862;28;20037;-74
2022/04/20 10:16:43;;;;;;;3.95;3.13;;;10.60;54.50;;;;;;5028701;28;20041;-74
2022/04/20 10:19:13;;;;;;;4.25;3.28;;;10.60;51.10;;;;;;5028019;28;20522;-74
2022/04/20 10:21:49;;;;;;;4.60;4.15;;;10.70;50.60;;;;;;5028611;28;20033;-73
2022/04/20 10:24:19;;;;;;;5.82;4.20;;;10.80;58.00;;;;;;5028218;28;20041;-75
2022/04/20 10:26:47;;;;;;;4.80;3.20;;;10.90;66.10;;;;;;5027523;28;20033;-73
2022/04/20 10:29:25;;;;;;;3.83;3.43;;;10.70;49.40;;;;;;5026341;28;20030;-74
2022/04/20 10:32:23;;;;;;;3.53;3.22;;;10.80;49.30;;;;;;5023425;28;20052;-74
2022/04/20 10:34:52;;;;;;;3.28;3.08;;;10.90;52.60;;;;;;5008161;28;20058;-74
2022/04/20 10:37:20;;;;;;;4.72;3.17;;;10.90;48.80;;;;;;5025183;28;20440;-74
2022/04/20 10:39:47;;;;;;;3.13;2.90;;;11.00;47.40;;;;;;5023094;28;20469;-74
2022/04/20 10:42:14;;;;;;;3.47;2.67;;;11.20;48.90;;;;;;5025825;28;20077;-74
2022/04/20 10:45:01;;;;;;;4.38;2.78;;;11.20;44.60;;;;;;5023497;28;20025;-74
2022/04/20 10:47:30;;;;;;;3.10;2.80;;;10.90;44.80;;;;;;5024992;28;20076;-74
2022/04/20 10:50:19;;;;;;;5.10;3.45;;;11.10;43.50;;;;;;5023865;28;20052;-75
2022/04/20 10:52:58;;;;;;;4.10;3.60;;;11.00;46.20;;;;;;5021234;28;22044;-75
2022/04/20 10:55:35;;;;;;;5.28;3.53;;;11.30;46.40;;;;;;5023575;28;20037;-75
2022/04/20 10:58:17;;;;;;;5.57;4.70;;;11.40;49.00;;;;;;5024835;28;20503;-75
2022/04/20 11:00:43;;;;;;;4.80;3.80;;;11.50;50.60;;;;;;5019647;28;20515;-75
2022/04/20 11:03:10;;;;;;;4.63;3.53;;;11.30;48.00;;;;;;5022489;28;20037;-74
2022/04/20 11:05:53;;;;;;;4.00;3.25;;;11.40;47.90;;;;;;5027011;28;20126;-75
2022/04/20 11:08:18;;;;;;;5.40;4.07;;;11.60;49.00;;;;;;5021203;28;20138;-75
2022/04/20 11:19:54;;;;;;;4.95;4.00;;;11.90;50.10;;;;;;5022557;28;20389;-74
2022/04/20 11:22:19;;;;;;;10.27;4.13;;;11.40;49.20;;;;;;5022574;28;20029;-74
2022/04/20 11:24:47;;;;;;;5.65;4.22;;;11.40;56.70;;;;;;5024744;28;20030;-73
2022/04/20 11:27:13;;;;;;;6.15;4.15;;;11.20;49.10;;;;;;5019519;28;20044;-73
2022/04/20 11:29:43;;;;;;;5.72;4.03;;;11.20;48.80;;;;;;5023820;28;20026;-73
2022/04/20 11:32:09;;;;;;;15.00;4.47;;;11.20;47.90;;;;;;5040126;28;20045;-73
2022/04/20 11:34:39;;;;;;;8.25;4.85;;;11.20;50.90;;;;;;5021573;28;20116;-73
2022/04/20 11:37:07;;;;;;;4.93;4.30;;;11.30;51.90;;;;;;5023631;28;20033;-73
2022/04/20 11:39:33;;;;;;;6.78;3.83;;;11.20;49.10;;;;;;5024510;28;20431;-73
2022/04/20 11:42:06;;;;;;;5.13;3.88;;;11.40;47.40;;;;;;5022590;28;20064;-73
2022/04/20 11:44:32;;;;;;;5.15;4.18;;;11.50;49.00;;;;;;5026378;28;20033;-73
2022/04/20 11:47:11;;;;;;;4.75;4.18;;;11.60;47.80;;;;;;5020438;28;20043;-73
2022/04/20 11:49:40;;;;;;;25.95;4.50;;;11.90;51.20;;;;;;5022646;28;20030;-72
2022/04/20 11:52:08;;;;;;;4.50;3.92;;;11.80;50.80;;;;;;5021496;28;20065;-73
2022/04/20 11:54:34;;;;;;;4.47;3.97;;;11.60;48.00;;;;;;5018865;28;20606;-74
2022/04/20 11:57:00;;;;;;;4.32;3.92;;;11.80;49.80;;;;;;5025644;28;20041;-74
2022/04/20 11:59:27;;;;;;;5.28;3.83;;;11.70;44.30;;;;;;5023653;28;20116;-73
2022/04/20 12:01:54;;;;;;;4.28;3.88;;;11.60;48.30;;;;;;5024735;28;20041;-74
2022/04/20 12:04:22;;;;;;;4.68;3.80;;;11.70;52.80;;;;;;5025316;28;20037;-73
2022/04/20 12:06:51;;;;;;;3.58;3.28;;;12.00;49.60;;;;;;5024227;28;20029;-73
2022/04/20 12:09:21;;;;;;;4.15;3.75;;;12.00;44.00;;;;;;5022872;28;20041;-73
2022/04/20 12:11:50;;;;;;;4.53;3.90;;;11.70;48.50;;;;;;5024074;28;20038;-74
2022/04/20 12:14:16;;;;;;;;;;;11.70;49.10;;;;;;5023996;28;20068;-74
2022/04/20 12:16:41;;;;;;;4.47;3.70;;;11.70;52.60;;;;;;5023871;28;19963;-73
2022/04/20 12:19:08;;;;;;;4.15;3.75;;;11.70;49.40;;;;;;5020349;28;20543;-73
2022/04/20 12:21:40;;;;;;;4.70;3.92;;;11.80;49.90;;;;;;5018660;28;20029;-74
2022/04/20 12:24:07;;;;;;;6.65;4.05;;;11.90;51.80;;;;;;5036176;28;20029;-73
2022/04/20 12:26:33;;;;;;;5.97;4.28;;;12.00;45.20;;;;;;5020765;28;21164;-74
2022/04/20 12:28:59;;;;;;;7.13;3.92;;;11.90;51.10;;;;;;5020144;28;20036;-74
2022/04/20 12:31:25;;;;;;;4.78;3.60;;;11.90;45.00;;;;;;5021044;28;20134;-74
2022/04/20 12:34:08;;;;;;;5.55;4.47;;;12.10;44.30;;;;;;5020634;28;20111;-74
2022/04/20 12:36:53;;;;;;;4.57;4.10;;;12.30;51.30;;;;;;5022441;28;20025;-74
2022/04/20 12:39:40;;;;;;;6.40;4.50;;;12.20;54.10;;;;;;5020472;28;20061;-74
2022/04/20 12:42:10;;;;;;;4.88;4.13;;;12.30;44.50;;;;;;5020119;28;20061;-74
2022/04/20 12:44:51;;;;;;;6.72;4.30;;;12.20;49.90;;;;;;5018579;28;20500;-75
2022/04/20 12:47:17;;;;;;;5.38;3.97;;;12.60;50.60;;;;;;5019420;28;20473;-74
2022/04/20 12:50:03;;;;;;;4.53;4.10;;;12.50;52.60;;;;;;5019271;28;20033;-75
2022/04/20 12:52:30;;;;;;;3.97;3.58;;;12.30;45.60;;;;;;5019300;28;20029;-74
2022/04/20 12:55:09;;;;;;;4.78;4.28;;;12.20;47.20;;;;;;5019128;28;20034;-74
2022/04/20 13:03:12;;;;;;;4.35;3.60;;;12.70;46.10;;;;;;5015184;28;20049;-74
2022/04/20 13:05:42;;;;;;;6.78;3.97;;;12.90;42.80;;;;;;5021024;28;20076;-74
2022/04/20 13:08:09;;;;;;;5.72;4.13;;;13.00;50.60;;;;;;5019271;28;20075;-74
2022/04/20 13:10:49;;;;;;;5.20;4.30;;;12.70;46.80;;;;;;5018904;28;20117;-74
2022/04/20 13:13:15;;;;;;;5.60;3.53;;;12.60;47.00;;;;;;5017979;28;20116;-74
2022/04/20 13:15:41;;;;;;;6.85;4.80;;;12.80;51.10;;;;;;5021151;28;20052;-74
2022/04/20 13:18:09;;;;;;;5.13;3.70;;;12.60;54.30;;;;;;5019373;28;20033;-74
2022/04/20 13:20:35;;;;;;;5.68;4.22;;;12.40;49.20;;;;;;5020392;28;20045;-74
2022/04/20 13:23:04;;;;;;;6.10;4.60;;;12.50;45.20;;;;;;5020105;28;20052;-74
2022/04/20 13:28:14;;;;;;;4.35;3.95;;;12.70;44.60;;;;;;5017457;28;20416;-74
2022/04/20 13:30:40;;;;;;;6.45;3.90;;;12.70;45.70;;;;;;5016858;28;20060;-75
2022/04/20 13:33:13;;;;;;;4.45;3.88;;;12.70;48.10;;;;;;5020719;28;20036;-74
2022/04/20 13:35:40;;;;;;;5.03;3.92;;;12.70;47.50;;;;;;5020373;28;21259;-74
2022/04/20 13:38:06;;;;;;;5.15;4.15;;;12.70;47.50;;;;;;5023894;28;20034;-74
2022/04/20 13:40:33;;;;;;;4.00;3.60;;;12.90;50.80;;;;;;5024046;28;20159;-74
2022/04/20 13:42:59;;;;;;;6.88;4.22;;;12.80;47.50;;;;;;5021816;28;22126;-74